sensor_id;sensor_type;location;lat;lon;timestamp;temperature;humidity
48535;DHT22;34323;52.022;5.686;2023-08-20T00:00:11;25.60;99.90
48535;DHT22;34323;52.022;5.686;2023-08-20T00:02:37;25.60;99.90
48535;DHT22;34323;52.022;5.686;2023-08-20T00:05:07;25.50;99.90
48535;DHT22;34323;52.022;5.686;2023-08-20T00:07:33;25.40;99.90
48535;DHT22;34323;52.022;5.686;2023-08-20T00:09:59;25.40;99.90
48535;DHT22;34323;52.022;5.686;2023-08-20T00:12:25;25.20;99.90
48535;DHT22;34323;52.022;5.686;2023-08-20T00:14:53;25.00;99.90
48535;DHT22;34323;52.022;5.686;2023-08-20T00:17:24;24.90;99.90
48535;DHT22;34323;52.022;5.686;2023-08-20T00:19:53;24.60;99.90
48535;DHT22;34323;52.022;5.686;2023-08-20T00:22:22;24.40;99.90
48535;DHT22;34323;52.022;5.686;2023-08-20T00:24:48;24.20;99.90
48535;DHT22;34323;52.022;5.686;2023-08-20T00:27:14;24.20;99.90
48535;DHT22;34323;52.022;5.686;2023-08-20T00:29:40;24.60;99.90
48535;DHT22;34323;52.022;5.686;2023-08-20T00:32:05;24.70;99.90
48535;DHT22;34323;52.022;5.686;2023-08-20T00:34:31;24.70;99.90
48535;DHT22;34323;52.022;5.686;2023-08-20T00:36:57;24.80;99.90
48535;DHT22;34323;52.022;5.686;2023-08-20T00:39:22;24.90;99.90
48535;DHT22;34323;52.022;5.686;2023-08-20T00:41:48;24.90;99.90
48535;DHT22;34323;52.022;5.686;2023-08-20T00:44:14;24.90;99.90
48535;DHT22;34323;52.022;5.686;2023-08-20T00:46:40;24.80;99.90
48535;DHT22;34323;52.022;5.686;2023-08-20T00:49:05;24.60;99.90
48535;DHT22;34323;52.022;5.686;2023-08-20T00:51:33;24.90;99.90
48535;DHT22;34323;52.022;5.686;2023-08-20T00:54:06;24.90;99.90
48535;DHT22;34323;52.022;5.686;2023-08-20T00:56:32;25.20;99.90
48535;DHT22;34323;52.022;5.686;2023-08-20T00:58:58;25.20;99.90
48535;DHT22;34323;52.022;5.686;2023-08-20T01:01:24;25.20;99.90
48535;DHT22;34323;52.022;5.686;2023-08-20T01:03:50;25.10;99.90
48535;DHT22;34323;52.022;5.686;2023-08-20T01:09:31;25.20;99.90
48535;DHT22;34323;52.022;5.686;2023-08-20T01:12:02;25.10;99.90
48535;DHT22;34323;52.022;5.686;2023-08-20T01:14:28;24.90;99.90
48535;DHT22;34323;52.022;5.686;2023-08-20T01:16:54;24.80;99.90
48535;DHT22;34323;52.022;5.686;2023-08-20T01:19:21;24.80;99.90
48535;DHT22;34323;52.022;5.686;2023-08-20T01:29:55;25.40;99.90
48535;DHT22;34323;52.022;5.686;2023-08-20T01:32:22;25.40;99.90
48535;DHT22;34323;52.022;5.686;2023-08-20T01:34:49;25.20;99.90
48535;DHT22;34323;52.022;5.686;2023-08-20T01:37:15;25.20;99.90
48535;DHT22;34323;52.022;5.686;2023-08-20T01:39:42;25.10;99.90
48535;DHT22;34323;52.022;5.686;2023-08-20T01:42:07;24.90;99.90
48535;DHT22;34323;52.022;5.686;2023-08-20T01:44:33;24.80;99.90
48535;DHT22;34323;52.022;5.686;2023-08-20T01:46:59;24.80;99.90
48535;DHT22;34323;52.022;5.686;2023-08-20T01:49:25;24.60;99.90
48535;DHT22;34323;52.022;5.686;2023-08-20T01:51:50;24.70;99.90
48535;DHT22;34323;52.022;5.686;2023-08-20T01:54:16;24.80;99.90
48535;DHT22;34323;52.022;5.686;2023-08-20T01:56:42;24.80;99.90
48535;DHT22;34323;52.022;5.686;2023-08-20T01:59:08;24.80;99.90
48535;DHT22;34323;52.022;5.686;2023-08-20T02:01:34;24.60;99.90
48535;DHT22;34323;52.022;5.686;2023-08-20T02:04:00;24.60;99.90
48535;DHT22;34323;52.022;5.686;2023-08-20T02:06:26;24.50;99.90
48535;DHT22;34323;52.022;5.686;2023-08-20T02:08:51;24.40;99.90
48535;DHT22;34323;52.022;5.686;2023-08-20T02:11:17;24.60;99.90
48535;DHT22;34323;52.022;5.686;2023-08-20T02:13:42;24.50;99.90
48535;DHT22;34323;52.022;5.686;2023-08-20T02:16:08;24.70;99.90
48535;DHT22;34323;52.022;5.686;2023-08-20T02:18:34;24.50;99.90
48535;DHT22;34323;52.022;5.686;2023-08-20T02:21:00;24.50;99.90
48535;DHT22;34323;52.022;5.686;2023-08-20T02:23:26;24.50;99.90
48535;DHT22;34323;52.022;5.686;2023-08-20T02:25:52;24.40;99.90
48535;DHT22;34323;52.022;5.686;2023-08-20T02:28:18;24.60;99.90
48535;DHT22;34323;52.022;5.686;2023-08-20T02:30:44;24.60;99.90
48535;DHT22;34323;52.022;5.686;2023-08-20T02:33:11;24.60;99.90
48535;DHT22;34323;52.022;5.686;2023-08-20T02:35:37;24.70;99.90
48535;DHT22;34323;52.022;5.686;2023-08-20T02:38:04;24.70;99.90
48535;DHT22;34323;52.022;5.686;2023-08-20T02:40:29;24.80;99.90
48535;DHT22;34323;52.022;5.686;2023-08-20T02:42:55;24.90;99.90
48535;DHT22;34323;52.022;5.686;2023-08-20T02:45:20;24.90;99.90
48535;DHT22;34323;52.022;5.686;2023-08-20T02:47:46;24.80;99.90
48535;DHT22;34323;52.022;5.686;2023-08-20T02:50:12;24.60;99.90
48535;DHT22;34323;52.022;5.686;2023-08-20T02:52:38;24.50;99.90
48535;DHT22;34323;52.022;5.686;2023-08-20T02:55:04;24.30;99.90
48535;DHT22;34323;52.022;5.686;2023-08-20T02:57:32;24.10;99.90
48535;DHT22;34323;52.022;5.686;2023-08-20T02:59:58;23.90;99.90
48535;DHT22;34323;52.022;5.686;2023-08-20T03:02:24;24.10;99.90
48535;DHT22;34323;52.022;5.686;2023-08-20T03:04:49;24.30;99.90
48535;DHT22;34323;52.022;5.686;2023-08-20T03:07:15;24.20;99.90
48535;DHT22;34323;52.022;5.686;2023-08-20T03:09:41;24.10;99.90
48535;DHT22;34323;52.022;5.686;2023-08-20T03:12:07;24.00;99.90
48535;DHT22;34323;52.022;5.686;2023-08-20T03:14:32;24.10;99.90
48535;DHT22;34323;52.022;5.686;2023-08-20T03:16:58;24.20;99.90
48535;DHT22;34323;52.022;5.686;2023-08-20T03:19:24;24.20;99.90
48535;DHT22;34323;52.022;5.686;2023-08-20T03:21:49;24.30;99.90
48535;DHT22;34323;52.022;5.686;2023-08-20T03:24:15;24.30;99.90
48535;DHT22;34323;52.022;5.686;2023-08-20T03:26:41;24.20;99.90
48535;DHT22;34323;52.022;5.686;2023-08-20T03:29:07;24.10;99.90
48535;DHT22;34323;52.022;5.686;2023-08-20T03:31:32;24.10;99.90
48535;DHT22;34323;52.022;5.686;2023-08-20T03:33:58;24.30;99.90
48535;DHT22;34323;52.022;5.686;2023-08-20T03:36:24;24.30;99.90
48535;DHT22;34323;52.022;5.686;2023-08-20T03:38:49;24.30;99.90
48535;DHT22;34323;52.022;5.686;2023-08-20T03:41:15;24.10;99.90
48535;DHT22;34323;52.022;5.686;2023-08-20T03:43:42;24.10;99.90
48535;DHT22;34323;52.022;5.686;2023-08-20T03:46:08;23.90;99.90
48535;DHT22;34323;52.022;5.686;2023-08-20T03:48:34;24.00;99.90
48535;DHT22;34323;52.022;5.686;2023-08-20T03:50:59;24.10;99.90
48535;DHT22;34323;52.022;5.686;2023-08-20T03:53:25;24.00;99.90
48535;DHT22;34323;52.022;5.686;2023-08-20T03:55:51;23.80;99.90
48535;DHT22;34323;52.022;5.686;2023-08-20T03:58:17;23.80;99.90
48535;DHT22;34323;52.022;5.686;2023-08-20T04:00:44;24.00;99.90
48535;DHT22;34323;52.022;5.686;2023-08-20T04:03:09;24.00;99.90
48535;DHT22;34323;52.022;5.686;2023-08-20T04:05:36;24.00;99.90
48535;DHT22;34323;52.022;5.686;2023-08-20T04:08:04;24.10;99.90
48535;DHT22;34323;52.022;5.686;2023-08-20T04:10:29;24.20;99.90
48535;DHT22;34323;52.022;5.686;2023-08-20T04:12:55;24.10;99.90
48535;DHT22;34323;52.022;5.686;2023-08-20T04:15:21;23.90;99.90
48535;DHT22;34323;52.022;5.686;2023-08-20T04:17:46;23.70;99.90
48535;DHT22;34323;52.022;5.686;2023-08-20T04:20:14;23.40;99.90
48535;DHT22;34323;52.022;5.686;2023-08-20T04:22:40;23.40;99.90
48535;DHT22;34323;52.022;5.686;2023-08-20T04:25:06;23.60;99.90
48535;DHT22;34323;52.022;5.686;2023-08-20T04:27:32;23.40;99.90
48535;DHT22;34323;52.022;5.686;2023-08-20T04:29:58;23.20;99.90
48535;DHT22;34323;52.022;5.686;2023-08-20T04:32:23;23.30;99.90
48535;DHT22;34323;52.022;5.686;2023-08-20T04:34:49;23.50;99.90
48535;DHT22;34323;52.022;5.686;2023-08-20T04:37:19;23.40;99.90
48535;DHT22;34323;52.022;5.686;2023-08-20T04:39:45;23.60;99.90
48535;DHT22;34323;52.022;5.686;2023-08-20T04:42:10;23.80;99.90
48535;DHT22;34323;52.022;5.686;2023-08-20T04:44:36;23.70;99.90
48535;DHT22;34323;52.022;5.686;2023-08-20T04:47:02;23.50;99.90
48535;DHT22;34323;52.022;5.686;2023-08-20T04:49:28;23.60;99.90
48535;DHT22;34323;52.022;5.686;2023-08-20T04:51:55;23.50;99.90
48535;DHT22;34323;52.022;5.686;2023-08-20T04:54:21;23.60;99.90
48535;DHT22;34323;52.022;5.686;2023-08-20T04:56:47;23.50;99.90
48535;DHT22;34323;52.022;5.686;2023-08-20T04:59:13;23.60;99.90
48535;DHT22;34323;52.022;5.686;2023-08-20T05:01:39;23.50;99.90
48535;DHT22;34323;52.022;5.686;2023-08-20T05:04:05;23.20;99.90
48535;DHT22;34323;52.022;5.686;2023-08-20T05:06:31;23.50;99.90
48535;DHT22;34323;52.022;5.686;2023-08-20T05:08:57;23.60;99.90
48535;DHT22;34323;52.022;5.686;2023-08-20T05:11:22;23.60;99.90
48535;DHT22;34323;52.022;5.686;2023-08-20T05:13:49;23.70;99.90
48535;DHT22;34323;52.022;5.686;2023-08-20T05:16:15;23.50;99.90
48535;DHT22;34323;52.022;5.686;2023-08-20T05:18:42;23.60;99.90
48535;DHT22;34323;52.022;5.686;2023-08-20T05:21:08;23.60;99.90
48535;DHT22;34323;52.022;5.686;2023-08-20T05:23:33;23.80;99.90
48535;DHT22;34323;52.022;5.686;2023-08-20T05:25:59;23.90;99.90
48535;DHT22;34323;52.022;5.686;2023-08-20T05:28:25;23.90;99.90
48535;DHT22;34323;52.022;5.686;2023-08-20T05:30:55;24.20;99.90
48535;DHT22;34323;52.022;5.686;2023-08-20T05:33:21;24.00;99.90
48535;DHT22;34323;52.022;5.686;2023-08-20T05:35:47;24.00;99.90
48535;DHT22;34323;52.022;5.686;2023-08-20T05:38:13;24.10;99.90
48535;DHT22;34323;52.022;5.686;2023-08-20T05:40:39;24.20;99.90
48535;DHT22;34323;52.022;5.686;2023-08-20T05:43:05;24.00;99.90
48535;DHT22;34323;52.022;5.686;2023-08-20T05:45:30;23.80;99.90
48535;DHT22;34323;52.022;5.686;2023-08-20T05:47:56;23.60;99.90
48535;DHT22;34323;52.022;5.686;2023-08-20T05:50:22;23.40;99.90
48535;DHT22;34323;52.022;5.686;2023-08-20T05:52:48;23.40;99.90
48535;DHT22;34323;52.022;5.686;2023-08-20T05:55:14;23.30;99.90
48535;DHT22;34323;52.022;5.686;2023-08-20T05:57:40;23.50;99.90
48535;DHT22;34323;52.022;5.686;2023-08-20T06:00:07;23.40;99.90
48535;DHT22;34323;52.022;5.686;2023-08-20T06:02:33;23.80;99.90
48535;DHT22;34323;52.022;5.686;2023-08-20T06:04:58;23.90;99.90
48535;DHT22;34323;52.022;5.686;2023-08-20T06:07:24;24.00;99.90
48535;DHT22;34323;52.022;5.686;2023-08-20T06:09:50;24.00;99.90
48535;DHT22;34323;52.022;5.686;2023-08-20T06:12:16;23.90;99.90
48535;DHT22;34323;52.022;5.686;2023-08-20T06:14:42;23.90;99.90
48535;DHT22;34323;52.022;5.686;2023-08-20T06:17:08;23.70;99.90
48535;DHT22;34323;52.022;5.686;2023-08-20T06:19:34;23.80;99.90
48535;DHT22;34323;52.022;5.686;2023-08-20T06:22:00;23.90;99.90
48535;DHT22;34323;52.022;5.686;2023-08-20T06:24:26;23.90;99.90
48535;DHT22;34323;52.022;5.686;2023-08-20T06:26:52;24.10;99.90
48535;DHT22;34323;52.022;5.686;2023-08-20T06:29:18;24.20;99.90
48535;DHT22;34323;52.022;5.686;2023-08-20T06:31:44;24.20;99.90
48535;DHT22;34323;52.022;5.686;2023-08-20T06:34:09;24.20;99.90
48535;DHT22;34323;52.022;5.686;2023-08-20T06:36:35;24.30;99.90
48535;DHT22;34323;52.022;5.686;2023-08-20T06:39:01;24.10;99.90
48535;DHT22;34323;52.022;5.686;2023-08-20T06:41:27;23.90;99.90
48535;DHT22;34323;52.022;5.686;2023-08-20T06:43:53;24.10;99.90
48535;DHT22;34323;52.022;5.686;2023-08-20T06:46:19;23.90;99.90
48535;DHT22;34323;52.022;5.686;2023-08-20T06:48:44;24.10;99.90
48535;DHT22;34323;52.022;5.686;2023-08-20T06:51:14;24.20;99.90
48535;DHT22;34323;52.022;5.686;2023-08-20T06:53:41;24.20;99.90
48535;DHT22;34323;52.022;5.686;2023-08-20T06:56:08;24.10;99.90
48535;DHT22;34323;52.022;5.686;2023-08-20T06:58:35;24.20;99.90
48535;DHT22;34323;52.022;5.686;2023-08-20T07:01:01;24.30;99.90
48535;DHT22;34323;52.022;5.686;2023-08-20T07:03:43;24.40;99.90
48535;DHT22;34323;52.022;5.686;2023-08-20T07:06:09;24.10;99.90
48535;DHT22;34323;52.022;5.686;2023-08-20T07:08:36;24.10;99.90
48535;DHT22;34323;52.022;5.686;2023-08-20T07:11:04;24.00;99.90
48535;DHT22;34323;52.022;5.686;2023-08-20T07:13:30;23.70;99.90
48535;DHT22;34323;52.022;5.686;2023-08-20T07:15:55;23.80;99.90
48535;DHT22;34323;52.022;5.686;2023-08-20T07:18:21;24.00;99.90
48535;DHT22;34323;52.022;5.686;2023-08-20T07:20:47;24.40;99.90
48535;DHT22;34323;52.022;5.686;2023-08-20T07:23:13;24.40;99.90
48535;DHT22;34323;52.022;5.686;2023-08-20T07:25:40;24.50;99.90
48535;DHT22;34323;52.022;5.686;2023-08-20T07:28:07;24.70;99.90
48535;DHT22;34323;52.022;5.686;2023-08-20T07:30:33;24.80;99.90
48535;DHT22;34323;52.022;5.686;2023-08-20T07:32:59;24.90;99.90
48535;DHT22;34323;52.022;5.686;2023-08-20T07:35:24;24.70;99.90
48535;DHT22;34323;52.022;5.686;2023-08-20T07:37:51;24.60;99.90
48535;DHT22;34323;52.022;5.686;2023-08-20T07:40:17;24.70;99.90
48535;DHT22;34323;52.022;5.686;2023-08-20T07:42:43;24.70;99.90
48535;DHT22;34323;52.022;5.686;2023-08-20T07:45:09;24.50;99.90
48535;DHT22;34323;52.022;5.686;2023-08-20T07:47:36;24.50;99.90
48535;DHT22;34323;52.022;5.686;2023-08-20T07:50:03;24.50;99.90
48535;DHT22;34323;52.022;5.686;2023-08-20T07:52:30;24.60;99.90
48535;DHT22;34323;52.022;5.686;2023-08-20T07:54:56;24.30;99.90
48535;DHT22;34323;52.022;5.686;2023-08-20T07:57:24;24.30;99.90
48535;DHT22;34323;52.022;5.686;2023-08-20T07:59:51;24.30;99.90
48535;DHT22;34323;52.022;5.686;2023-08-20T08:02:17;24.30;99.90
48535;DHT22;34323;52.022;5.686;2023-08-20T08:04:43;24.50;99.90
48535;DHT22;34323;52.022;5.686;2023-08-20T08:07:10;24.70;99.90
48535;DHT22;34323;52.022;5.686;2023-08-20T08:09:37;24.80;99.90
48535;DHT22;34323;52.022;5.686;2023-08-20T08:12:03;24.70;99.90
48535;DHT22;34323;52.022;5.686;2023-08-20T08:14:29;24.50;99.90
48535;DHT22;34323;52.022;5.686;2023-08-20T08:16:55;24.70;99.90
48535;DHT22;34323;52.022;5.686;2023-08-20T08:19:21;24.50;99.90
48535;DHT22;34323;52.022;5.686;2023-08-20T08:21:47;24.70;99.90
48535;DHT22;34323;52.022;5.686;2023-08-20T08:24:13;24.80;99.90
48535;DHT22;34323;52.022;5.686;2023-08-20T08:26:40;24.90;99.90
48535;DHT22;34323;52.022;5.686;2023-08-20T08:29:07;25.10;99.90
48535;DHT22;34323;52.022;5.686;2023-08-20T08:31:33;25.10;99.90
48535;DHT22;34323;52.022;5.686;2023-08-20T08:33:59;25.30;99.90
48535;DHT22;34323;52.022;5.686;2023-08-20T08:36:25;25.30;99.90
48535;DHT22;34323;52.022;5.686;2023-08-20T08:38:52;25.00;99.90
48535;DHT22;34323;52.022;5.686;2023-08-20T08:41:21;25.20;99.90
48535;DHT22;34323;52.022;5.686;2023-08-20T08:43:47;25.50;99.90
48535;DHT22;34323;52.022;5.686;2023-08-20T08:46:14;25.50;99.90
48535;DHT22;34323;52.022;5.686;2023-08-20T08:48:44;25.60;99.90
48535;DHT22;34323;52.022;5.686;2023-08-20T08:51:12;25.50;99.90
48535;DHT22;34323;52.022;5.686;2023-08-20T08:53:38;25.60;99.90
48535;DHT22;34323;52.022;5.686;2023-08-20T08:56:04;25.80;99.90
48535;DHT22;34323;52.022;5.686;2023-08-20T08:58:33;26.10;99.90
48535;DHT22;34323;52.022;5.686;2023-08-20T09:00:59;26.20;99.90
48535;DHT22;34323;52.022;5.686;2023-08-20T09:03:26;26.30;99.90
48535;DHT22;34323;52.022;5.686;2023-08-20T09:05:57;26.20;99.90
48535;DHT22;34323;52.022;5.686;2023-08-20T09:08:30;26.40;99.90
48535;DHT22;34323;52.022;5.686;2023-08-20T09:10:57;26.60;99.90
48535;DHT22;34323;52.022;5.686;2023-08-20T09:13:37;27.00;99.90
48535;DHT22;34323;52.022;5.686;2023-08-20T09:16:08;27.30;99.90
48535;DHT22;34323;52.022;5.686;2023-08-20T09:18:40;27.50;99.90
48535;DHT22;34323;52.022;5.686;2023-08-20T09:21:08;27.40;99.90
48535;DHT22;34323;52.022;5.686;2023-08-20T09:23:34;27.70;99.90
48535;DHT22;34323;52.022;5.686;2023-08-20T09:26:02;28.00;99.90
48535;DHT22;34323;52.022;5.686;2023-08-20T09:28:28;27.50;99.90
48535;DHT22;34323;52.022;5.686;2023-08-20T09:30:58;27.20;99.90
48535;DHT22;34323;52.022;5.686;2023-08-20T09:33:24;27.30;99.90
48535;DHT22;34323;52.022;5.686;2023-08-20T09:35:51;27.60;99.90
48535;DHT22;34323;52.022;5.686;2023-08-20T09:38:19;28.20;99.90
48535;DHT22;34323;52.022;5.686;2023-08-20T09:40:52;28.20;99.90
48535;DHT22;34323;52.022;5.686;2023-08-20T09:43:19;28.30;99.90
48535;DHT22;34323;52.022;5.686;2023-08-20T09:45:47;28.20;99.90
48535;DHT22;34323;52.022;5.686;2023-08-20T09:48:19;28.60;99.90
48535;DHT22;34323;52.022;5.686;2023-08-20T09:50:49;28.90;99.90
48535;DHT22;34323;52.022;5.686;2023-08-20T09:53:34;29.10;99.90
48535;DHT22;34323;52.022;5.686;2023-08-20T09:56:49;29.20;99.90
48535;DHT22;34323;52.022;5.686;2023-08-20T09:59:00;29.20;99.90
48535;DHT22;34323;52.022;5.686;2023-08-20T10:01:27;29.00;99.90
48535;DHT22;34323;52.022;5.686;2023-08-20T10:03:53;29.20;99.90
48535;DHT22;34323;52.022;5.686;2023-08-20T10:06:20;29.30;99.90
48535;DHT22;34323;52.022;5.686;2023-08-20T10:08:46;29.60;99.90
48535;DHT22;34323;52.022;5.686;2023-08-20T10:11:12;29.30;99.90
48535;DHT22;34323;52.022;5.686;2023-08-20T10:13:39;29.40;99.90
48535;DHT22;34323;52.022;5.686;2023-08-20T10:16:05;29.60;99.90
48535;DHT22;34323;52.022;5.686;2023-08-20T10:18:31;30.00;99.90
48535;DHT22;34323;52.022;5.686;2023-08-20T10:21:01;30.10;99.90
48535;DHT22;34323;52.022;5.686;2023-08-20T10:23:26;30.50;99.90
48535;DHT22;34323;52.022;5.686;2023-08-20T10:25:52;30.40;99.90
48535;DHT22;34323;52.022;5.686;2023-08-20T10:28:25;30.40;99.90
48535;DHT22;34323;52.022;5.686;2023-08-20T10:31:10;30.70;99.90
48535;DHT22;34323;52.022;5.686;2023-08-20T10:33:50;30.60;99.90
48535;DHT22;34323;52.022;5.686;2023-08-20T10:36:23;29.90;99.90
48535;DHT22;34323;52.022;5.686;2023-08-20T10:38:54;30.00;99.90
48535;DHT22;34323;52.022;5.686;2023-08-20T10:41:28;30.00;99.90
48535;DHT22;34323;52.022;5.686;2023-08-20T10:43:58;30.10;99.90
48535;DHT22;34323;52.022;5.686;2023-08-20T10:46:25;30.30;99.90
48535;DHT22;34323;52.022;5.686;2023-08-20T10:49:01;30.60;99.90
48535;DHT22;34323;52.022;5.686;2023-08-20T10:51:33;30.80;99.90
48535;DHT22;34323;52.022;5.686;2023-08-20T10:54:03;30.80;99.90
48535;DHT22;34323;52.022;5.686;2023-08-20T10:56:54;30.80;99.90
48535;DHT22;34323;52.022;5.686;2023-08-20T10:59:26;30.80;99.90
48535;DHT22;34323;52.022;5.686;2023-08-20T11:01:54;31.20;99.90
48535;DHT22;34323;52.022;5.686;2023-08-20T11:04:22;30.80;99.90
48535;DHT22;34323;52.022;5.686;2023-08-20T11:06:54;30.60;99.90
48535;DHT22;34323;52.022;5.686;2023-08-20T11:09:25;30.80;99.90
48535;DHT22;34323;52.022;5.686;2023-08-20T11:11:51;30.90;99.90
48535;DHT22;34323;52.022;5.686;2023-08-20T11:14:18;30.60;99.90
48535;DHT22;34323;52.022;5.686;2023-08-20T11:16:45;30.50;99.90
48535;DHT22;34323;52.022;5.686;2023-08-20T11:19:12;30.30;99.90
48535;DHT22;34323;52.022;5.686;2023-08-20T11:21:39;30.10;99.90
48535;DHT22;34323;52.022;5.686;2023-08-20T11:24:09;29.90;99.90
48535;DHT22;34323;52.022;5.686;2023-08-20T11:26:35;30.00;99.90
48535;DHT22;34323;52.022;5.686;2023-08-20T11:31:33;30.90;99.90
48535;DHT22;34323;52.022;5.686;2023-08-20T11:33:59;31.30;99.90
48535;DHT22;34323;52.022;5.686;2023-08-20T11:36:27;31.70;99.90
48535;DHT22;34323;52.022;5.686;2023-08-20T11:38:53;32.10;99.90
48535;DHT22;34323;52.022;5.686;2023-08-20T11:41:20;32.00;99.90
48535;DHT22;34323;52.022;5.686;2023-08-20T11:43:47;32.30;99.90
48535;DHT22;34323;52.022;5.686;2023-08-20T11:46:13;32.20;99.90
48535;DHT22;34323;52.022;5.686;2023-08-20T11:48:59;31.80;99.90
48535;DHT22;34323;52.022;5.686;2023-08-20T11:51:26;31.40;99.90
48535;DHT22;34323;52.022;5.686;2023-08-20T11:53:52;31.70;99.90
48535;DHT22;34323;52.022;5.686;2023-08-20T11:56:18;31.90;99.90
48535;DHT22;34323;52.022;5.686;2023-08-20T11:58:49;32.20;99.90
48535;DHT22;34323;52.022;5.686;2023-08-20T12:01:15;32.00;99.90
48535;DHT22;34323;52.022;5.686;2023-08-20T12:03:43;32.20;99.90
48535;DHT22;34323;52.022;5.686;2023-08-20T12:06:20;32.50;99.90
48535;DHT22;34323;52.022;5.686;2023-08-20T12:08:52;32.60;99.90
48535;DHT22;34323;52.022;5.686;2023-08-20T12:11:18;32.70;99.90
48535;DHT22;34323;52.022;5.686;2023-08-20T12:13:49;32.90;99.90
48535;DHT22;34323;52.022;5.686;2023-08-20T12:16:14;33.00;99.90
48535;DHT22;34323;52.022;5.686;2023-08-20T12:18:40;32.90;99.90
48535;DHT22;34323;52.022;5.686;2023-08-20T12:21:06;32.90;99.90
48535;DHT22;34323;52.022;5.686;2023-08-20T12:23:32;32.50;99.90
48535;DHT22;34323;52.022;5.686;2023-08-20T12:26:03;32.60;99.90
48535;DHT22;34323;52.022;5.686;2023-08-20T12:28:29;32.80;99.90
48535;DHT22;34323;52.022;5.686;2023-08-20T12:30:55;32.90;99.90
48535;DHT22;34323;52.022;5.686;2023-08-20T12:33:20;33.20;99.90
48535;DHT22;34323;52.022;5.686;2023-08-20T12:35:46;33.20;99.90
48535;DHT22;34323;52.022;5.686;2023-08-20T12:38:14;33.00;99.90
48535;DHT22;34323;52.022;5.686;2023-08-20T12:40:40;32.80;99.90
48535;DHT22;34323;52.022;5.686;2023-08-20T12:43:06;32.90;99.90
48535;DHT22;34323;52.022;5.686;2023-08-20T12:45:32;32.70;99.90
48535;DHT22;34323;52.022;5.686;2023-08-20T12:47:57;33.00;99.90
48535;DHT22;34323;52.022;5.686;2023-08-20T12:50:23;33.30;99.90
48535;DHT22;34323;52.022;5.686;2023-08-20T12:52:51;33.50;99.90
48535;DHT22;34323;52.022;5.686;2023-08-20T12:55:16;33.70;99.90
48535;DHT22;34323;52.022;5.686;2023-08-20T12:57:53;33.70;99.90
48535;DHT22;34323;52.022;5.686;2023-08-20T13:00:20;33.70;99.90
48535;DHT22;34323;52.022;5.686;2023-08-20T13:02:46;33.90;99.90
48535;DHT22;34323;52.022;5.686;2023-08-20T13:05:12;33.80;99.90
48535;DHT22;34323;52.022;5.686;2023-08-20T13:07:38;33.80;99.90
48535;DHT22;34323;52.022;5.686;2023-08-20T13:10:07;34.00;99.90
48535;DHT22;34323;52.022;5.686;2023-08-20T13:12:36;34.10;99.90
48535;DHT22;34323;52.022;5.686;2023-08-20T13:15:03;34.00;99.90
48535;DHT22;34323;52.022;5.686;2023-08-20T13:17:30;34.30;99.90
48535;DHT22;34323;52.022;5.686;2023-08-20T13:19:55;34.10;99.90
48535;DHT22;34323;52.022;5.686;2023-08-20T13:22:21;34.00;99.90
48535;DHT22;34323;52.022;5.686;2023-08-20T13:24:47;34.40;99.90
48535;DHT22;34323;52.022;5.686;2023-08-20T13:27:13;34.90;99.90
48535;DHT22;34323;52.022;5.686;2023-08-20T13:29:40;34.80;99.90
48535;DHT22;34323;52.022;5.686;2023-08-20T13:32:06;34.50;99.90
48535;DHT22;34323;52.022;5.686;2023-08-20T13:34:31;35.30;99.90
48535;DHT22;34323;52.022;5.686;2023-08-20T13:36:57;34.60;99.90
48535;DHT22;34323;52.022;5.686;2023-08-20T13:39:23;34.60;99.90
48535;DHT22;34323;52.022;5.686;2023-08-20T13:41:49;35.70;99.90
48535;DHT22;34323;52.022;5.686;2023-08-20T13:44:16;36.70;99.90
48535;DHT22;34323;52.022;5.686;2023-08-20T13:46:41;36.90;99.90
48535;DHT22;34323;52.022;5.686;2023-08-20T13:49:07;38.30;99.90
48535;DHT22;34323;52.022;5.686;2023-08-20T13:51:32;39.60;99.90
48535;DHT22;34323;52.022;5.686;2023-08-20T13:53:58;40.80;99.90
48535;DHT22;34323;52.022;5.686;2023-08-20T13:56:24;41.70;99.90
48535;DHT22;34323;52.022;5.686;2023-08-20T13:58:51;41.50;99.90
48535;DHT22;34323;52.022;5.686;2023-08-20T14:01:17;41.70;99.90
48535;DHT22;34323;52.022;5.686;2023-08-20T14:03:43;41.30;99.90
48535;DHT22;34323;52.022;5.686;2023-08-20T14:06:08;41.80;99.90
48535;DHT22;34323;52.022;5.686;2023-08-20T14:08:34;42.70;99.90
48535;DHT22;34323;52.022;5.686;2023-08-20T14:10:59;43.90;99.90
48535;DHT22;34323;52.022;5.686;2023-08-20T14:13:25;44.20;99.50
48535;DHT22;34323;52.022;5.686;2023-08-20T14:15:51;43.70;98.70
48535;DHT22;34323;52.022;5.686;2023-08-20T14:18:16;44.40;99.40
48535;DHT22;34323;52.022;5.686;2023-08-20T14:20:42;44.80;97.80
48535;DHT22;34323;52.022;5.686;2023-08-20T14:23:07;43.80;98.70
48535;DHT22;34323;52.022;5.686;2023-08-20T14:25:33;42.80;99.00
48535;DHT22;34323;52.022;5.686;2023-08-20T14:27:58;41.60;99.40
48535;DHT22;34323;52.022;5.686;2023-08-20T14:30:24;39.20;98.60
48535;DHT22;34323;52.022;5.686;2023-08-20T14:32:50;38.50;99.90
48535;DHT22;34323;52.022;5.686;2023-08-20T14:35:15;38.10;99.20
48535;DHT22;34323;52.022;5.686;2023-08-20T14:37:41;38.20;99.70
48535;DHT22;34323;52.022;5.686;2023-08-20T14:40:07;38.10;99.90
48535;DHT22;34323;52.022;5.686;2023-08-20T14:42:35;38.00;99.70
48535;DHT22;34323;52.022;5.686;2023-08-20T14:45:00;37.60;99.90
48535;DHT22;34323;52.022;5.686;2023-08-20T14:47:26;37.30;99.90
48535;DHT22;34323;52.022;5.686;2023-08-20T14:49:52;37.20;99.90
48535;DHT22;34323;52.022;5.686;2023-08-20T14:52:17;37.00;99.90
48535;DHT22;34323;52.022;5.686;2023-08-20T14:54:43;36.30;99.90
48535;DHT22;34323;52.022;5.686;2023-08-20T14:57:08;35.70;99.90
48535;DHT22;34323;52.022;5.686;2023-08-20T14:59:34;35.10;99.90
48535;DHT22;34323;52.022;5.686;2023-08-20T15:01:59;34.60;99.90
48535;DHT22;34323;52.022;5.686;2023-08-20T15:04:25;34.20;99.90
48535;DHT22;34323;52.022;5.686;2023-08-20T15:06:51;33.80;99.90
48535;DHT22;34323;52.022;5.686;2023-08-20T15:09:17;33.40;99.90
48535;DHT22;34323;52.022;5.686;2023-08-20T15:11:42;33.20;99.90
48535;DHT22;34323;52.022;5.686;2023-08-20T15:14:08;33.30;99.90
48535;DHT22;34323;52.022;5.686;2023-08-20T15:16:34;34.80;99.90
48535;DHT22;34323;52.022;5.686;2023-08-20T15:18:59;36.50;99.90
48535;DHT22;34323;52.022;5.686;2023-08-20T15:21:26;37.30;99.90
48535;DHT22;34323;52.022;5.686;2023-08-20T15:23:52;38.10;99.90
48535;DHT22;34323;52.022;5.686;2023-08-20T15:26:17;38.60;99.90
48535;DHT22;34323;52.022;5.686;2023-08-20T15:28:43;38.70;99.90
48535;DHT22;34323;52.022;5.686;2023-08-20T15:31:08;38.00;99.90
48535;DHT22;34323;52.022;5.686;2023-08-20T15:33:34;37.30;99.90
48535;DHT22;34323;52.022;5.686;2023-08-20T15:36:00;36.90;99.90
48535;DHT22;34323;52.022;5.686;2023-08-20T15:38:26;36.80;99.90
48535;DHT22;34323;52.022;5.686;2023-08-20T15:40:54;37.40;99.90